sensor_id;sensor_type;location;lat;lon;timestamp;temperature;humidity
13123;DHT22;6627;50.920;12.050;2022-08-18T00:00:30;18.60;99.90
13123;DHT22;6627;50.920;12.050;2022-08-18T00:03:06;18.50;99.90
13123;DHT22;6627;50.920;12.050;2022-08-18T00:05:35;18.60;99.90
13123;DHT22;6627;50.920;12.050;2022-08-18T00:08:06;18.90;99.90
13123;DHT22;6627;50.920;12.050;2022-08-18T00:10:34;19.00;99.90
13123;DHT22;6627;50.920;12.050;2022-08-18T00:13:08;18.70;99.90
13123;DHT22;6627;50.920;12.050;2022-08-18T00:15:40;18.50;99.90
13123;DHT22;6627;50.920;12.050;2022-08-18T00:18:16;18.60;99.90
13123;DHT22;6627;50.920;12.050;2022-08-18T00:20:44;18.60;99.90
13123;DHT22;6627;50.920;12.050;2022-08-18T00:23:13;18.50;99.90
13123;DHT22;6627;50.920;12.050;2022-08-18T00:25:45;18.40;99.90
13123;DHT22;6627;50.920;12.050;2022-08-18T00:28:15;18.50;99.90
13123;DHT22;6627;50.920;12.050;2022-08-18T00:30:44;18.50;99.90
13123;DHT22;6627;50.920;12.050;2022-08-18T00:33:11;18.50;99.90
13123;DHT22;6627;50.920;12.050;2022-08-18T00:35:39;18.50;99.90
13123;DHT22;6627;50.920;12.050;2022-08-18T00:38:11;18.50;99.90
13123;DHT22;6627;50.920;12.050;2022-08-18T00:40:43;18.50;99.90
13123;DHT22;6627;50.920;12.050;2022-08-18T00:43:18;18.50;99.90
13123;DHT22;6627;50.920;12.050;2022-08-18T00:45:59;18.40;99.90
13123;DHT22;6627;50.920;12.050;2022-08-18T00:48:28;18.50;99.90
13123;DHT22;6627;50.920;12.050;2022-08-18T00:50:58;18.80;99.90
13123;DHT22;6627;50.920;12.050;2022-08-18T00:53:33;19.00;99.90
13123;DHT22;6627;50.920;12.050;2022-08-18T00:56:07;18.90;99.90
13123;DHT22;6627;50.920;12.050;2022-08-18T00:58:42;18.60;99.90
13123;DHT22;6627;50.920;12.050;2022-08-18T01:01:16;18.40;99.90
13123;DHT22;6627;50.920;12.050;2022-08-18T01:03:53;18.40;99.90
13123;DHT22;6627;50.920;12.050;2022-08-18T01:06:29;18.60;99.90
13123;DHT22;6627;50.920;12.050;2022-08-18T01:09:04;18.80;99.90
13123;DHT22;6627;50.920;12.050;2022-08-18T01:11:35;18.50;99.90
13123;DHT22;6627;50.920;12.050;2022-08-18T01:14:11;18.30;99.90
13123;DHT22;6627;50.920;12.050;2022-08-18T01:16:43;18.20;99.90
13123;DHT22;6627;50.920;12.050;2022-08-18T01:19:48;18.40;99.90
13123;DHT22;6627;50.920;12.050;2022-08-18T01:22:41;18.80;99.90
13123;DHT22;6627;50.920;12.050;2022-08-18T01:25:20;18.60;99.90
13123;DHT22;6627;50.920;12.050;2022-08-18T01:28:07;18.30;99.90
13123;DHT22;6627;50.920;12.050;2022-08-18T01:30:45;18.20;99.90
13123;DHT22;6627;50.920;12.050;2022-08-18T01:33:16;18.20;99.90
13123;DHT22;6627;50.920;12.050;2022-08-18T01:35:54;18.30;99.90
13123;DHT22;6627;50.920;12.050;2022-08-18T01:38:28;18.20;99.90
13123;DHT22;6627;50.920;12.050;2022-08-18T01:41:17;18.20;99.90
13123;DHT22;6627;50.920;12.050;2022-08-18T01:44:05;18.30;99.90
13123;DHT22;6627;50.920;12.050;2022-08-18T01:46:56;18.10;99.90
13123;DHT22;6627;50.920;12.050;2022-08-18T01:49:43;18.30;99.90
13123;DHT22;6627;50.920;12.050;2022-08-18T01:52:30;18.10;99.90
13123;DHT22;6627;50.920;12.050;2022-08-18T01:55:05;18.10;99.90
13123;DHT22;6627;50.920;12.050;2022-08-18T01:57:35;18.10;99.90
13123;DHT22;6627;50.920;12.050;2022-08-18T02:00:09;18.10;99.90
13123;DHT22;6627;50.920;12.050;2022-08-18T02:02:39;18.00;99.90
13123;DHT22;6627;50.920;12.050;2022-08-18T02:05:11;17.90;99.90
13123;DHT22;6627;50.920;12.050;2022-08-18T02:07:41;17.90;99.90
13123;DHT22;6627;50.920;12.050;2022-08-18T02:10:10;17.90;99.90
13123;DHT22;6627;50.920;12.050;2022-08-18T02:12:38;17.90;99.90
13123;DHT22;6627;50.920;12.050;2022-08-18T02:15:07;18.10;99.90
13123;DHT22;6627;50.920;12.050;2022-08-18T02:17:37;18.40;99.90
13123;DHT22;6627;50.920;12.050;2022-08-18T02:20:05;18.60;99.90
13123;DHT22;6627;50.920;12.050;2022-08-18T02:22:34;18.40;99.90
13123;DHT22;6627;50.920;12.050;2022-08-18T02:25:02;18.20;99.90
13123;DHT22;6627;50.920;12.050;2022-08-18T02:27:32;18.20;99.90
13123;DHT22;6627;50.920;12.050;2022-08-18T02:30:01;18.20;99.90
13123;DHT22;6627;50.920;12.050;2022-08-18T02:32:31;18.30;99.90
13123;DHT22;6627;50.920;12.050;2022-08-18T02:34:59;18.30;99.90
13123;DHT22;6627;50.920;12.050;2022-08-18T02:37:27;18.20;99.90
13123;DHT22;6627;50.920;12.050;2022-08-18T02:39:56;18.10;99.90
13123;DHT22;6627;50.920;12.050;2022-08-18T02:42:23;18.20;99.90
13123;DHT22;6627;50.920;12.050;2022-08-18T02:44:52;18.50;99.90
13123;DHT22;6627;50.920;12.050;2022-08-18T02:47:20;18.60;99.90
13123;DHT22;6627;50.920;12.050;2022-08-18T02:49:47;18.20;99.90
13123;DHT22;6627;50.920;12.050;2022-08-18T02:52:15;18.00;99.90
13123;DHT22;6627;50.920;12.050;2022-08-18T02:54:43;17.80;99.90
13123;DHT22;6627;50.920;12.050;2022-08-18T02:57:11;17.80;99.90
13123;DHT22;6627;50.920;12.050;2022-08-18T02:59:40;17.90;99.90
13123;DHT22;6627;50.920;12.050;2022-08-18T03:02:09;18.20;99.90
13123;DHT22;6627;50.920;12.050;2022-08-18T03:04:36;18.30;99.90
13123;DHT22;6627;50.920;12.050;2022-08-18T03:07:05;18.10;99.90
13123;DHT22;6627;50.920;12.050;2022-08-18T03:09:34;17.70;99.90
13123;DHT22;6627;50.920;12.050;2022-08-18T03:12:02;17.70;99.90
13123;DHT22;6627;50.920;12.050;2022-08-18T03:14:32;17.90;99.90
13123;DHT22;6627;50.920;12.050;2022-08-18T03:17:03;18.10;99.90
13123;DHT22;6627;50.920;12.050;2022-08-18T03:19:35;17.90;99.90
13123;DHT22;6627;50.920;12.050;2022-08-18T03:22:03;17.70;99.90
13123;DHT22;6627;50.920;12.050;2022-08-18T03:24:32;17.50;99.90
13123;DHT22;6627;50.920;12.050;2022-08-18T03:27:02;17.30;99.90
13123;DHT22;6627;50.920;12.050;2022-08-18T03:29:31;17.20;99.90
13123;DHT22;6627;50.920;12.050;2022-08-18T03:31:59;17.20;99.90
13123;DHT22;6627;50.920;12.050;2022-08-18T03:34:27;17.20;99.90
13123;DHT22;6627;50.920;12.050;2022-08-18T03:36:56;17.10;99.90
13123;DHT22;6627;50.920;12.050;2022-08-18T03:39:25;17.20;99.90
13123;DHT22;6627;50.920;12.050;2022-08-18T03:41:54;17.10;99.90
13123;DHT22;6627;50.920;12.050;2022-08-18T03:44:23;17.00;99.90
13123;DHT22;6627;50.920;12.050;2022-08-18T03:46:50;17.00;99.90
13123;DHT22;6627;50.920;12.050;2022-08-18T03:49:18;17.00;99.90
13123;DHT22;6627;50.920;12.050;2022-08-18T03:51:47;17.20;99.90
13123;DHT22;6627;50.920;12.050;2022-08-18T03:54:17;17.20;99.90
13123;DHT22;6627;50.920;12.050;2022-08-18T03:56:46;17.10;99.90
13123;DHT22;6627;50.920;12.050;2022-08-18T03:59:16;17.10;99.90
13123;DHT22;6627;50.920;12.050;2022-08-18T04:01:46;17.10;99.90
13123;DHT22;6627;50.920;12.050;2022-08-18T04:04:17;17.30;99.90
13123;DHT22;6627;50.920;12.050;2022-08-18T04:06:48;17.40;99.90
13123;DHT22;6627;50.920;12.050;2022-08-18T04:09:21;17.30;99.90
13123;DHT22;6627;50.920;12.050;2022-08-18T04:11:50;17.30;99.90
13123;DHT22;6627;50.920;12.050;2022-08-18T04:14:19;17.30;99.90
13123;DHT22;6627;50.920;12.050;2022-08-18T04:16:49;17.30;99.90
13123;DHT22;6627;50.920;12.050;2022-08-18T04:19:18;17.60;99.90
13123;DHT22;6627;50.920;12.050;2022-08-18T04:21:45;17.60;99.90
13123;DHT22;6627;50.920;12.050;2022-08-18T04:24:14;17.40;99.90
13123;DHT22;6627;50.920;12.050;2022-08-18T04:26:45;17.30;99.90
13123;DHT22;6627;50.920;12.050;2022-08-18T04:29:15;17.30;99.90
13123;DHT22;6627;50.920;12.050;2022-08-18T04:31:46;17.30;99.90
13123;DHT22;6627;50.920;12.050;2022-08-18T04:34:14;17.30;99.90
13123;DHT22;6627;50.920;12.050;2022-08-18T04:36:42;17.20;99.90
13123;DHT22;6627;50.920;12.050;2022-08-18T04:39:11;17.20;99.90
13123;DHT22;6627;50.920;12.050;2022-08-18T04:41:41;17.20;99.90
13123;DHT22;6627;50.920;12.050;2022-08-18T04:44:11;17.20;99.90
13123;DHT22;6627;50.920;12.050;2022-08-18T04:46:41;17.50;99.90
13123;DHT22;6627;50.920;12.050;2022-08-18T04:49:11;17.70;99.90
13123;DHT22;6627;50.920;12.050;2022-08-18T04:51:43;17.80;99.90
13123;DHT22;6627;50.920;12.050;2022-08-18T04:54:34;17.70;99.90
13123;DHT22;6627;50.920;12.050;2022-08-18T04:57:10;17.70;99.90
13123;DHT22;6627;50.920;12.050;2022-08-18T04:59:39;17.90;99.90
13123;DHT22;6627;50.920;12.050;2022-08-18T05:02:08;17.90;99.90
13123;DHT22;6627;50.920;12.050;2022-08-18T05:04:38;17.60;99.90
13123;DHT22;6627;50.920;12.050;2022-08-18T05:07:09;17.50;99.90
13123;DHT22;6627;50.920;12.050;2022-08-18T05:09:38;17.40;99.90
13123;DHT22;6627;50.920;12.050;2022-08-18T05:12:09;17.40;99.90
13123;DHT22;6627;50.920;12.050;2022-08-18T05:14:38;17.40;99.90
13123;DHT22;6627;50.920;12.050;2022-08-18T05:17:05;17.40;99.90
13123;DHT22;6627;50.920;12.050;2022-08-18T05:19:32;17.40;99.90
13123;DHT22;6627;50.920;12.050;2022-08-18T05:22:01;17.60;99.90
13123;DHT22;6627;50.920;12.050;2022-08-18T05:24:30;17.90;99.90
13123;DHT22;6627;50.920;12.050;2022-08-18T05:26:58;18.10;99.90
13123;DHT22;6627;50.920;12.050;2022-08-18T05:29:27;18.30;99.90
13123;DHT22;6627;50.920;12.050;2022-08-18T05:32:00;18.40;99.90
13123;DHT22;6627;50.920;12.050;2022-08-18T05:34:31;18.30;99.90
13123;DHT22;6627;50.920;12.050;2022-08-18T05:37:12;18.20;99.90
13123;DHT22;6627;50.920;12.050;2022-08-18T05:39:55;18.40;99.90
13123;DHT22;6627;50.920;12.050;2022-08-18T05:42:26;18.60;99.90
13123;DHT22;6627;50.920;12.050;2022-08-18T05:44:58;18.70;99.90
13123;DHT22;6627;50.920;12.050;2022-08-18T05:47:37;18.80;99.90
13123;DHT22;6627;50.920;12.050;2022-08-18T05:50:07;18.90;99.90
13123;DHT22;6627;50.920;12.050;2022-08-18T05:52:41;18.90;99.90
13123;DHT22;6627;50.920;12.050;2022-08-18T05:55:17;18.80;99.90
13123;DHT22;6627;50.920;12.050;2022-08-18T05:58:09;18.80;99.90
13123;DHT22;6627;50.920;12.050;2022-08-18T06:00:48;18.60;99.90
13123;DHT22;6627;50.920;12.050;2022-08-18T06:03:21;18.70;99.90
13123;DHT22;6627;50.920;12.050;2022-08-18T06:05:54;18.80;99.90
13123;DHT22;6627;50.920;12.050;2022-08-18T06:08:29;18.90;99.90
13123;DHT22;6627;50.920;12.050;2022-08-18T06:11:04;19.00;99.90
13123;DHT22;6627;50.920;12.050;2022-08-18T06:13:37;19.10;99.90
13123;DHT22;6627;50.920;12.050;2022-08-18T06:16:15;19.20;99.90
13123;DHT22;6627;50.920;12.050;2022-08-18T06:18:50;19.10;99.90
13123;DHT22;6627;50.920;12.050;2022-08-18T06:21:37;19.00;99.90
13123;DHT22;6627;50.920;12.050;2022-08-18T06:24:20;18.90;99.90
13123;DHT22;6627;50.920;12.050;2022-08-18T06:27:00;18.90;99.90
13123;DHT22;6627;50.920;12.050;2022-08-18T06:29:46;19.00;99.90
13123;DHT22;6627;50.920;12.050;2022-08-18T06:32:47;19.00;99.90
13123;DHT22;6627;50.920;12.050;2022-08-18T06:35:35;19.10;99.90
13123;DHT22;6627;50.920;12.050;2022-08-18T06:38:24;19.30;99.90
13123;DHT22;6627;50.920;12.050;2022-08-18T06:41:13;19.60;99.90
13123;DHT22;6627;50.920;12.050;2022-08-18T06:43:53;19.60;99.90
13123;DHT22;6627;50.920;12.050;2022-08-18T06:46:34;19.60;99.90
13123;DHT22;6627;50.920;12.050;2022-08-18T06:49:09;19.60;99.90
13123;DHT22;6627;50.920;12.050;2022-08-18T06:51:39;19.60;99.90
13123;DHT22;6627;50.920;12.050;2022-08-18T06:57:21;19.70;99.90
13123;DHT22;6627;50.920;12.050;2022-08-18T07:00:03;19.50;99.90
13123;DHT22;6627;50.920;12.050;2022-08-18T07:02:45;19.50;99.90
13123;DHT22;6627;50.920;12.050;2022-08-18T07:05:23;19.50;99.90
13123;DHT22;6627;50.920;12.050;2022-08-18T07:08:11;19.60;99.90
13123;DHT22;6627;50.920;12.050;2022-08-18T07:10:43;19.70;99.90
13123;DHT22;6627;50.920;12.050;2022-08-18T07:13:17;19.80;99.90
13123;DHT22;6627;50.920;12.050;2022-08-18T07:15:52;19.70;99.90
13123;DHT22;6627;50.920;12.050;2022-08-18T07:18:25;19.80;99.90
13123;DHT22;6627;50.920;12.050;2022-08-18T07:20:57;19.80;99.90
13123;DHT22;6627;50.920;12.050;2022-08-18T07:23:30;20.00;99.90
13123;DHT22;6627;50.920;12.050;2022-08-18T07:26:04;20.10;99.90
13123;DHT22;6627;50.920;12.050;2022-08-18T07:28:37;20.20;99.90
13123;DHT22;6627;50.920;12.050;2022-08-18T07:31:13;20.30;99.90
13123;DHT22;6627;50.920;12.050;2022-08-18T07:33:51;20.40;99.90
13123;DHT22;6627;50.920;12.050;2022-08-18T07:36:27;20.40;99.90
13123;DHT22;6627;50.920;12.050;2022-08-18T07:39:05;20.40;99.90
13123;DHT22;6627;50.920;12.050;2022-08-18T07:41:39;20.20;99.90
13123;DHT22;6627;50.920;12.050;2022-08-18T07:44:15;20.00;99.90
13123;DHT22;6627;50.920;12.050;2022-08-18T07:46:53;20.00;99.90
13123;DHT22;6627;50.920;12.050;2022-08-18T07:49:28;20.10;99.90
13123;DHT22;6627;50.920;12.050;2022-08-18T07:52:05;20.20;99.90
13123;DHT22;6627;50.920;12.050;2022-08-18T07:54:42;20.30;99.90
13123;DHT22;6627;50.920;12.050;2022-08-18T07:57:24;20.40;99.90
13123;DHT22;6627;50.920;12.050;2022-08-18T08:00:06;20.20;99.90
13123;DHT22;6627;50.920;12.050;2022-08-18T08:02:46;20.30;99.90
13123;DHT22;6627;50.920;12.050;2022-08-18T08:05:41;20.30;99.90
13123;DHT22;6627;50.920;12.050;2022-08-18T08:08:19;20.50;99.90
13123;DHT22;6627;50.920;12.050;2022-08-18T08:11:00;20.60;99.90
13123;DHT22;6627;50.920;12.050;2022-08-18T08:13:41;20.70;99.90
13123;DHT22;6627;50.920;12.050;2022-08-18T08:16:21;20.50;99.90
13123;DHT22;6627;50.920;12.050;2022-08-18T08:19:07;20.50;99.90
13123;DHT22;6627;50.920;12.050;2022-08-18T08:21:56;20.50;99.90
13123;DHT22;6627;50.920;12.050;2022-08-18T08:24:34;20.40;99.90
13123;DHT22;6627;50.920;12.050;2022-08-18T08:27:15;20.50;99.90
13123;DHT22;6627;50.920;12.050;2022-08-18T08:29:59;20.60;99.90
13123;DHT22;6627;50.920;12.050;2022-08-18T08:32:34;20.80;99.90
13123;DHT22;6627;50.920;12.050;2022-08-18T08:35:07;20.90;99.90
13123;DHT22;6627;50.920;12.050;2022-08-18T08:37:41;20.80;99.90
13123;DHT22;6627;50.920;12.050;2022-08-18T08:40:16;20.80;99.90
13123;DHT22;6627;50.920;12.050;2022-08-18T08:42:51;20.90;99.90
13123;DHT22;6627;50.920;12.050;2022-08-18T08:45:27;21.00;99.90
13123;DHT22;6627;50.920;12.050;2022-08-18T08:48:01;21.10;99.90
13123;DHT22;6627;50.920;12.050;2022-08-18T08:50:35;21.20;99.90
13123;DHT22;6627;50.920;12.050;2022-08-18T08:53:14;21.30;99.90
13123;DHT22;6627;50.920;12.050;2022-08-18T08:55:50;21.50;99.90
13123;DHT22;6627;50.920;12.050;2022-08-18T08:58:27;21.50;99.90
13123;DHT22;6627;50.920;12.050;2022-08-18T09:01:02;21.60;99.90
13123;DHT22;6627;50.920;12.050;2022-08-18T09:03:38;21.60;99.90
13123;DHT22;6627;50.920;12.050;2022-08-18T09:06:20;21.50;99.90
13123;DHT22;6627;50.920;12.050;2022-08-18T09:09:18;21.40;99.90
13123;DHT22;6627;50.920;12.050;2022-08-18T09:12:07;21.40;99.90
13123;DHT22;6627;50.920;12.050;2022-08-18T09:15:11;21.40;99.90
13123;DHT22;6627;50.920;12.050;2022-08-18T09:17:58;21.20;99.90
13123;DHT22;6627;50.920;12.050;2022-08-18T09:21:08;21.00;99.90
13123;DHT22;6627;50.920;12.050;2022-08-18T09:23:47;20.80;99.90
13123;DHT22;6627;50.920;12.050;2022-08-18T09:26:26;20.70;99.90
13123;DHT22;6627;50.920;12.050;2022-08-18T09:29:16;20.40;99.90
13123;DHT22;6627;50.920;12.050;2022-08-18T09:32:29;20.30;99.90
13123;DHT22;6627;50.920;12.050;2022-08-18T09:35:16;20.30;99.90
13123;DHT22;6627;50.920;12.050;2022-08-18T09:37:59;20.40;99.90
13123;DHT22;6627;50.920;12.050;2022-08-18T09:41:04;20.40;99.90
13123;DHT22;6627;50.920;12.050;2022-08-18T09:43:56;20.40;99.90
13123;DHT22;6627;50.920;12.050;2022-08-18T09:46:56;20.30;99.90
13123;DHT22;6627;50.920;12.050;2022-08-18T09:49:47;20.30;99.90
13123;DHT22;6627;50.920;12.050;2022-08-18T09:55:50;20.40;99.90
13123;DHT22;6627;50.920;12.050;2022-08-18T09:58:55;20.30;99.90
13123;DHT22;6627;50.920;12.050;2022-08-18T10:01:39;20.40;99.90
13123;DHT22;6627;50.920;12.050;2022-08-18T10:04:29;20.60;99.90
13123;DHT22;6627;50.920;12.050;2022-08-18T10:07:15;20.60;99.90
13123;DHT22;6627;50.920;12.050;2022-08-18T10:09:56;20.70;99.90
13123;DHT22;6627;50.920;12.050;2022-08-18T10:12:47;20.50;99.90
13123;DHT22;6627;50.920;12.050;2022-08-18T10:15:38;20.40;99.90
13123;DHT22;6627;50.920;12.050;2022-08-18T10:18:25;20.30;99.90
13123;DHT22;6627;50.920;12.050;2022-08-18T10:21:11;20.20;99.90
13123;DHT22;6627;50.920;12.050;2022-08-18T10:23:48;20.20;99.90
13123;DHT22;6627;50.920;12.050;2022-08-18T10:29:48;20.20;99.90
13123;DHT22;6627;50.920;12.050;2022-08-18T10:32:36;20.10;99.90
13123;DHT22;6627;50.920;12.050;2022-08-18T10:38:34;20.40;99.90
13123;DHT22;6627;50.920;12.050;2022-08-18T10:41:12;20.50;99.90
13123;DHT22;6627;50.920;12.050;2022-08-18T10:43:51;20.50;99.90
13123;DHT22;6627;50.920;12.050;2022-08-18T10:46:21;20.60;99.90
13123;DHT22;6627;50.920;12.050;2022-08-18T10:49:02;20.70;99.90
13123;DHT22;6627;50.920;12.050;2022-08-18T10:51:47;20.80;99.90
13123;DHT22;6627;50.920;12.050;2022-08-18T10:54:32;20.70;99.90
13123;DHT22;6627;50.920;12.050;2022-08-18T10:57:14;20.60;99.90
13123;DHT22;6627;50.920;12.050;2022-08-18T10:59:58;20.60;99.90
13123;DHT22;6627;50.920;12.050;2022-08-18T11:02:46;20.70;99.90
13123;DHT22;6627;50.920;12.050;2022-08-18T11:05:26;20.70;99.90
13123;DHT22;6627;50.920;12.050;2022-08-18T11:07:57;20.80;99.90
13123;DHT22;6627;50.920;12.050;2022-08-18T11:10:37;20.60;99.90
13123;DHT22;6627;50.920;12.050;2022-08-18T11:13:13;20.70;99.90
13123;DHT22;6627;50.920;12.050;2022-08-18T11:15:58;20.80;99.90
13123;DHT22;6627;50.920;12.050;2022-08-18T11:18:37;20.80;99.90
13123;DHT22;6627;50.920;12.050;2022-08-18T11:21:33;20.80;99.90
13123;DHT22;6627;50.920;12.050;2022-08-18T11:24:08;20.80;99.90
13123;DHT22;6627;50.920;12.050;2022-08-18T11:26:41;21.00;99.90
13123;DHT22;6627;50.920;12.050;2022-08-18T11:29:23;20.90;99.90
13123;DHT22;6627;50.920;12.050;2022-08-18T11:31:56;20.90;99.90
13123;DHT22;6627;50.920;12.050;2022-08-18T11:34:33;21.00;99.90
13123;DHT22;6627;50.920;12.050;2022-08-18T11:37:05;21.10;99.90
13123;DHT22;6627;50.920;12.050;2022-08-18T11:39:42;21.20;99.90
13123;DHT22;6627;50.920;12.050;2022-08-18T11:42:17;21.20;99.90
13123;DHT22;6627;50.920;12.050;2022-08-18T11:44:53;20.90;99.90
13123;DHT22;6627;50.920;12.050;2022-08-18T11:47:21;20.70;99.90
13123;DHT22;6627;50.920;12.050;2022-08-18T11:49:56;20.50;99.90
13123;DHT22;6627;50.920;12.050;2022-08-18T11:52:45;20.60;99.90
13123;DHT22;6627;50.920;12.050;2022-08-18T11:55:20;20.90;99.90
13123;DHT22;6627;50.920;12.050;2022-08-18T11:57:57;20.90;99.90
13123;DHT22;6627;50.920;12.050;2022-08-18T12:00:53;20.80;99.90
13123;DHT22;6627;50.920;12.050;2022-08-18T12:03:28;21.00;99.90
13123;DHT22;6627;50.920;12.050;2022-08-18T12:06:18;20.80;99.90
13123;DHT22;6627;50.920;12.050;2022-08-18T12:08:51;20.60;99.90
13123;DHT22;6627;50.920;12.050;2022-08-18T12:11:24;20.50;99.90
13123;DHT22;6627;50.920;12.050;2022-08-18T12:14:00;20.50;99.90
13123;DHT22;6627;50.920;12.050;2022-08-18T12:16:37;20.60;99.90
13123;DHT22;6627;50.920;12.050;2022-08-18T12:19:09;20.80;99.90
13123;DHT22;6627;50.920;12.050;2022-08-18T12:21:39;20.90;99.90
13123;DHT22;6627;50.920;12.050;2022-08-18T12:24:12;20.80;99.90
13123;DHT22;6627;50.920;12.050;2022-08-18T12:26:46;20.60;99.90
13123;DHT22;6627;50.920;12.050;2022-08-18T12:29:15;20.70;99.90
13123;DHT22;6627;50.920;12.050;2022-08-18T12:31:44;20.80;99.90
13123;DHT22;6627;50.920;12.050;2022-08-18T12:34:12;20.90;99.90
13123;DHT22;6627;50.920;12.050;2022-08-18T12:36:39;21.00;99.90
13123;DHT22;6627;50.920;12.050;2022-08-18T12:39:06;21.00;99.90
13123;DHT22;6627;50.920;12.050;2022-08-18T12:41:34;21.00;99.90
13123;DHT22;6627;50.920;12.050;2022-08-18T12:44:01;21.10;99.90
13123;DHT22;6627;50.920;12.050;2022-08-18T12:46:30;21.10;99.90
13123;DHT22;6627;50.920;12.050;2022-08-18T12:48:58;21.10;99.90
13123;DHT22;6627;50.920;12.050;2022-08-18T12:51:25;21.00;99.90
13123;DHT22;6627;50.920;12.050;2022-08-18T12:53:52;20.90;99.90
13123;DHT22;6627;50.920;12.050;2022-08-18T12:56:22;20.90;99.90
13123;DHT22;6627;50.920;12.050;2022-08-18T12:58:52;20.90;99.90
13123;DHT22;6627;50.920;12.050;2022-08-18T13:01:20;21.10;99.90
13123;DHT22;6627;50.920;12.050;2022-08-18T13:03:49;21.10;99.90
13123;DHT22;6627;50.920;12.050;2022-08-18T13:06:18;21.00;99.90
13123;DHT22;6627;50.920;12.050;2022-08-18T13:08:45;21.00;99.90
13123;DHT22;6627;50.920;12.050;2022-08-18T13:11:13;20.80;99.90
13123;DHT22;6627;50.920;12.050;2022-08-18T13:13:40;20.70;99.90
13123;DHT22;6627;50.920;12.050;2022-08-18T13:16:07;20.70;99.90
13123;DHT22;6627;50.920;12.050;2022-08-18T13:18:35;20.80;99.90
13123;DHT22;6627;50.920;12.050;2022-08-18T13:21:07;20.90;99.90
13123;DHT22;6627;50.920;12.050;2022-08-18T13:23:35;21.10;99.90
13123;DHT22;6627;50.920;12.050;2022-08-18T13:26:05;21.20;99.90
13123;DHT22;6627;50.920;12.050;2022-08-18T13:28:35;21.20;99.90
13123;DHT22;6627;50.920;12.050;2022-08-18T13:31:02;21.30;99.90
13123;DHT22;6627;50.920;12.050;2022-08-18T13:33:30;21.30;99.90
13123;DHT22;6627;50.920;12.050;2022-08-18T13:35:58;21.40;99.90
13123;DHT22;6627;50.920;12.050;2022-08-18T13:38:26;21.50;99.90
13123;DHT22;6627;50.920;12.050;2022-08-18T13:40:56;21.50;99.90
13123;DHT22;6627;50.920;12.050;2022-08-18T13:43:29;21.50;99.90
13123;DHT22;6627;50.920;12.050;2022-08-18T13:45:58;21.60;99.90
13123;DHT22;6627;50.920;12.050;2022-08-18T13:48:26;21.60;99.90
13123;DHT22;6627;50.920;12.050;2022-08-18T13:50:55;21.70;99.90
13123;DHT22;6627;50.920;12.050;2022-08-18T13:53:25;21.70;99.90
13123;DHT22;6627;50.920;12.050;2022-08-18T13:55:56;21.80;99.90
13123;DHT22;6627;50.920;12.050;2022-08-18T14:00:56;22.00;99.90
13123;DHT22;6627;50.920;12.050;2022-08-18T14:03:25;22.00;99.90
13123;DHT22;6627;50.920;12.050;2022-08-18T14:05:52;22.10;99.90
13123;DHT22;6627;50.920;12.050;2022-08-18T14:08:23;22.20;99.90
13123;DHT22;6627;50.920;12.050;2022-08-18T14:10:59;22.20;99.90
13123;DHT22;6627;50.920;12.050;2022-08-18T14:13:29;22.30;99.90
13123;DHT22;6627;50.920;12.050;2022-08-18T14:15:57;22.40;99.90
13123;DHT22;6627;50.920;12.050;2022-08-18T14:18:26;22.40;99.90
13123;DHT22;6627;50.920;12.050;2022-08-18T14:20:54;22.60;99.90
13123;DHT22;6627;50.920;12.050;2022-08-18T14:23:40;22.70;99.90
13123;DHT22;6627;50.920;12.050;2022-08-18T14:26:25;22.70;99.90
13123;DHT22;6627;50.920;12.050;2022-08-18T14:29:10;22.80;99.90
13123;DHT22;6627;50.920;12.050;2022-08-18T14:31:37;23.00;99.90
13123;DHT22;6627;50.920;12.050;2022-08-18T14:34:05;23.10;99.90
13123;DHT22;6627;50.920;12.050;2022-08-18T14:36:33;23.10;99.90
13123;DHT22;6627;50.920;12.050;2022-08-18T14:39:01;23.00;99.90
13123;DHT22;6627;50.920;12.050;2022-08-18T14:41:31;23.00;99.90
13123;DHT22;6627;50.920;12.050;2022-08-18T14:44:00;23.10;99.90
13123;DHT22;6627;50.920;12.050;2022-08-18T14:46:28;23.20;99.90
13123;DHT22;6627;50.920;12.050;2022-08-18T14:48:55;23.10;99.90
13123;DHT22;6627;50.920;12.050;2022-08-18T14:51:23;23.20;99.90
13123;DHT22;6627;50.920;12.050;2022-08-18T14:53:52;23.30;99.90
13123;DHT22;6627;50.920;12.050;2022-08-18T14:56:19;23.40;99.90
13123;DHT22;6627;50.920;12.050;2022-08-18T14:58:47;23.50;99.90
13123;DHT22;6627;50.920;12.050;2022-08-18T15:01:15;23.70;99.90
13123;DHT22;6627;50.920;12.050;2022-08-18T15:03:42;23.70;99.90
13123;DHT22;6627;50.920;12.050;2022-08-18T15:06:10;23.90;99.90
13123;DHT22;6627;50.920;12.050;2022-08-18T15:08:37;23.80;99.90
13123;DHT22;6627;50.920;12.050;2022-08-18T15:11:05;23.80;99.90
13123;DHT22;6627;50.920;12.050;2022-08-18T15:13:33;23.90;99.90
13123;DHT22;6627;50.920;12.050;2022-08-18T15:16:03;24.00;99.90
13123;DHT22;6627;50.920;12.050;2022-08-18T15:18:36;24.00;99.90
13123;DHT22;6627;50.920;12.050;2022-08-18T15:21:03;24.00;99.90
13123;DHT22;6627;50.920;12.050;2022-08-18T15:23:48;24.10;99.90
13123;DHT22;6627;50.920;12.050;2022-08-18T15:26:32;24.10;99.90
13123;DHT22;6627;50.920;12.050;2022-08-18T15:29:00;24.00;99.90
13123;DHT22;6627;50.920;12.050;2022-08-18T15:31:29;23.80;99.90
13123;DHT22;6627;50.920;12.050;2022-08-18T15:33:57;23.90;99.90
13123;DHT22;6627;50.920;12.050;2022-08-18T15:36:24;23.90;99.90
13123;DHT22;6627;50.920;12.050;2022-08-18T15:38:51;23.90;99.90
13123;DHT22;6627;50.920;12.050;2022-08-18T15:41:29;23.90;99.90
13123;DHT22;6627;50.920;12.050;2022-08-18T15:43:59;24.10;99.90
13123;DHT22;6627;50.920;12.050;2022-08-18T15:46:31;24.30;99.90
13123;DHT22;6627;50.920;12.050;2022-08-18T15:48:59;24.30;99.90
13123;DHT22;6627;50.920;12.050;2022-08-18T15:51:30;24.30;99.90
13123;DHT22;6627;50.920;12.050;2022-08-18T15:53:57;24.30;99.90
13123;DHT22;6627;50.920;12.050;2022-08-18T15:56:25;24.20;99.90
13123;DHT22;6627;50.920;12.050;2022-08-18T15:58:54;24.30;99.90
13123;DHT22;6627;50.920;12.050;2022-08-18T16:01:24;24.30;99.90
13123;DHT22;6627;50.920;12.050;2022-08-18T16:03:52;24.30;99.90
13123;DHT22;6627;50.920;12.050;2022-08-18T16:06:22;24.30;99.90
13123;DHT22;6627;50.920;12.050;2022-08-18T16:08:51;24.30;99.90
13123;DHT22;6627;50.920;12.050;2022-08-18T16:11:20;24.30;99.90
13123;DHT22;6627;50.920;12.050;2022-08-18T16:13:48;24.20;99.90
13123;DHT22;6627;50.920;12.050;2022-08-18T16:16:17;24.20;99.90
13123;DHT22;6627;50.920;12.050;2022-08-18T16:18:46;24.30;99.90
13123;DHT22;6627;50.920;12.050;2022-08-18T16:21:17;24.30;99.90
13123;DHT22;6627;50.920;12.050;2022-08-18T16:23:47;24.20;99.90
13123;DHT22;6627;50.920;12.050;2022-08-18T16:26:17;24.00;99.90
13123;DHT22;6627;50.920;12.050;2022-08-18T16:28:49;23.80;99.90
13123;DHT22;6627;50.920;12.050;2022-08-18T16:31:18;23.90;99.90